Time;durP1;ratioP1;P1;durP2;ratioP2;P2;SDS_P1;SDS_P2;PMS_P1;PMS_P2;Temp;Humidity;BMP_temperature;BMP_pressure;BME280_temperature;BME280_humidity;BME280_pressure;Samples;Min_cycle;Max_cycle;Signal;HPM_P1;HPM_P2
2022/05/29 00:03:31;;;;;;;5.40;2.00;;;10.50;99.90;;;;;;10356422;28;20234;-78
2022/05/29 00:08:53;;;;;;;4.37;1.50;;;10.60;99.90;;;;;;10342412;28;20228;-80
2022/05/29 00:14:14;;;;;;;5.33;2.10;;;10.60;99.90;;;;;;10355396;28;20208;-80
2022/05/29 00:19:36;;;;;;;5.37;2.33;;;10.60;99.90;;;;;;10357119;28;20200;-80
2022/05/29 00:24:57;;;;;;;5.23;1.80;;;10.60;99.90;;;;;;10355608;28;20279;-79
2022/05/29 00:30:19;;;;;;;6.73;2.20;;;10.60;99.90;;;;;;10341812;28;20198;-80
2022/05/29 00:35:41;;;;;;;3.83;1.60;;;10.60;99.90;;;;;;10341993;28;20281;-80
2022/05/29 00:41:22;;;;;;;8.20;1.90;;;10.50;99.90;;;;;;10355485;28;20235;-81
2022/05/29 00:46:54;;;;;;;6.23;2.17;;;10.50;99.90;;;;;;10314176;28;20459;-80
2022/05/29 00:52:22;;;;;;;6.73;1.97;;;10.50;99.90;;;;;;10314563;28;20490;-79
2022/05/29 00:57:52;;;;;;;3.93;1.33;;;10.50;99.90;;;;;;10314616;28;20208;-80
2022/05/29 01:03:14;;;;;;;3.87;1.70;;;10.40;99.90;;;;;;10315275;28;20231;-81
2022/05/29 01:08:38;;;;;;;5.13;1.60;;;10.50;99.90;;;;;;10304481;28;20200;-81
2022/05/29 01:14:40;;;;;;;5.93;1.77;;;10.50;99.90;;;;;;10354211;28;20229;-79
2022/05/29 01:20:20;;;;;;;5.10;1.60;;;10.50;99.90;;;;;;10355487;28;20282;-78
2022/05/29 01:26:05;;;;;;;3.07;1.50;;;10.40;99.90;;;;;;10354423;28;20214;-77
2022/05/29 01:31:44;;;;;;;4.60;1.50;;;10.50;99.90;;;;;;10355092;28;20275;-78
2022/05/29 01:37:15;;;;;;;4.63;1.63;;;10.40;99.90;;;;;;10353592;28;20244;-78
2022/05/29 01:42:51;;;;;;;6.93;2.17;;;10.40;99.90;;;;;;10360048;28;20234;-79
2022/05/29 01:48:18;;;;;;;5.00;2.07;;;10.30;99.90;;;;;;10362804;28;20207;-78
2022/05/29 01:53:42;;;;;;;5.23;2.30;;;10.30;99.90;;;;;;10361943;28;20224;-78
2022/05/29 01:59:15;;;;;;;2.00;1.40;;;10.30;99.90;;;;;;10361532;28;20206;-78
2022/05/29 02:04:46;;;;;;;6.50;2.07;;;10.40;99.90;;;;;;10361240;28;20228;-79
2022/05/29 02:10:14;;;;;;;4.83;1.77;;;10.40;99.90;;;;;;10360233;28;20520;-78
2022/05/29 02:15:45;;;;;;;4.93;2.07;;;10.40;99.90;;;;;;10361746;28;20199;-78
2022/05/29 02:21:18;;;;;;;2.90;1.60;;;10.50;99.90;;;;;;10346927;28;20452;-78
2022/05/29 02:26:56;;;;;;;2.07;1.60;;;10.50;99.90;;;;;;10360656;28;20384;-79
2022/05/29 02:32:30;;;;;;;4.60;1.60;;;10.50;99.90;;;;;;10361025;28;20197;-79
2022/05/29 02:37:57;;;;;;;4.73;1.83;;;10.50;99.90;;;;;;10361087;28;20237;-78
2022/05/29 02:43:25;;;;;;;5.50;2.17;;;10.50;99.90;;;;;;10359390;28;20236;-79
2022/05/29 02:48:49;;;;;;;5.00;2.17;;;10.60;99.90;;;;;;10360373;28;20397;-78
2022/05/29 02:54:12;;;;;;;4.93;2.30;;;10.50;99.90;;;;;;10344135;28;20499;-78
2022/05/29 02:59:38;;;;;;;2.57;1.67;;;10.50;99.90;;;;;;10345696;28;20460;-80
2022/05/29 03:05:02;;;;;;;10.03;2.97;;;10.50;99.90;;;;;;10344960;28;20234;-80
2022/05/29 03:10:29;;;;;;;3.77;1.90;;;10.40;99.90;;;;;;10344389;28;20208;-80
2022/05/29 03:16:09;;;;;;;4.03;2.20;;;10.50;99.90;;;;;;10359240;28;20191;-78
2022/05/29 03:21:49;;;;;;;5.23;2.43;;;10.50;99.90;;;;;;10344764;28;20235;-81
2022/05/29 03:27:30;;;;;;;6.53;2.10;;;10.50;99.90;;;;;;10344589;28;20201;-80
2022/05/29 03:32:58;;;;;;;5.57;2.40;;;10.60;99.90;;;;;;10330539;28;20207;-80
2022/05/29 03:38:20;;;;;;;8.57;2.57;;;10.60;99.90;;;;;;10330182;28;20241;-80
2022/05/29 03:43:42;;;;;;;5.43;2.53;;;10.60;99.90;;;;;;10357200;28;20243;-80
2022/05/29 03:49:10;;;;;;;4.47;1.90;;;10.60;99.90;;;;;;10356923;28;20496;-79
2022/05/29 03:54:31;;;;;;;5.40;1.97;;;10.70;99.90;;;;;;10357116;28;20216;-80
2022/05/29 03:59:52;;;;;;;5.47;2.03;;;10.70;99.90;;;;;;10357743;28;20499;-80
2022/05/29 04:05:20;;;;;;;7.13;2.73;;;10.80;99.90;;;;;;10356230;28;20243;-80
2022/05/29 04:16:22;;;;;;;8.60;2.40;;;10.90;99.90;;;;;;10342011;28;20207;-79
2022/05/29 04:21:44;;;;;;;6.97;2.80;;;11.00;99.90;;;;;;10356286;28;20221;-78
2022/05/29 04:27:09;;;;;;;6.33;2.30;;;11.00;99.90;;;;;;10356105;28;20222;-78
2022/05/29 04:38:11;;;;;;;5.60;2.70;;;11.10;99.90;;;;;;10355203;28;20294;-78
2022/05/29 04:43:32;;;;;;;9.27;2.53;;;11.20;99.90;;;;;;10354942;28;20277;-78
2022/05/29 04:48:54;;;;;;;5.63;2.20;;;11.30;99.90;;;;;;10341480;28;20275;-78
2022/05/29 04:54:15;;;;;;;3.60;2.27;;;11.50;99.90;;;;;;10354845;28;20392;-81
2022/05/29 04:59:37;;;;;;;7.27;2.77;;;11.60;99.90;;;;;;10355725;28;20224;-80
2022/05/29 05:04:58;;;;;;;8.90;3.20;;;11.60;99.90;;;;;;10354405;28;20287;-81
2022/05/29 05:10:19;;;;;;;8.07;2.43;;;11.60;99.90;;;;;;10354169;28;20271;-78
2022/05/29 05:15:41;;;;;;;9.30;2.80;;;11.70;99.90;;;;;;10353467;28;20398;-79
2022/05/29 05:21:07;;;;;;;3.60;2.20;;;11.70;99.90;;;;;;10355495;28;20201;-79
2022/05/29 05:26:29;;;;;;;5.30;2.40;;;11.70;99.90;;;;;;10354356;28;20210;-80
2022/05/29 05:31:50;;;;;;;7.53;2.60;;;11.80;99.90;;;;;;10354610;28;20224;-80
2022/05/29 05:37:12;;;;;;;5.13;2.23;;;11.80;99.90;;;;;;10340244;28;20239;-78
2022/05/29 05:42:33;;;;;;;7.30;2.73;;;11.90;99.90;;;;;;10354609;28;20251;-78
2022/05/29 05:47:55;;;;;;;4.23;2.33;;;11.90;99.90;;;;;;10354224;28;20196;-80
2022/05/29 05:53:16;;;;;;;4.20;2.40;;;11.90;99.90;;;;;;10355024;28;20498;-79
2022/05/29 05:58:39;;;;;;;5.27;2.63;;;11.90;99.90;;;;;;10354729;28;20196;-78
2022/05/29 06:04:00;;;;;;;6.30;2.93;;;12.00;99.90;;;;;;10339527;28;20542;-78
2022/05/29 06:09:22;;;;;;;7.40;3.20;;;11.90;99.90;;;;;;10352671;28;20284;-78
2022/05/29 06:14:43;;;;;;;6.63;3.03;;;11.90;99.90;;;;;;10326419;28;20441;-78
2022/05/29 06:20:07;;;;;;;5.47;2.60;;;11.90;99.90;;;;;;10351408;28;20207;-78
2022/05/29 06:25:28;;;;;;;12.70;3.40;;;12.00;99.90;;;;;;10340012;28;20233;-78
2022/05/29 06:30:49;;;;;;;9.60;3.10;;;12.00;99.90;;;;;;10361407;28;20256;-78
2022/05/29 06:36:17;;;;;;;7.20;2.93;;;12.00;99.90;;;;;;10359769;28;20290;-78
2022/05/29 06:41:39;;;;;;;6.17;3.20;;;12.00;99.90;;;;;;10359936;28;20214;-78
2022/05/29 06:47:04;;;;;;;5.33;2.90;;;12.10;99.90;;;;;;10359696;28;20224;-78
2022/05/29 06:52:29;;;;;;;6.53;2.93;;;12.40;99.90;;;;;;10359898;28;20220;-78
2022/05/29 06:57:51;;;;;;;8.05;3.45;;;12.50;99.90;;;;;;10360144;28;20261;-78
2022/05/29 07:08:55;;;;;;;6.80;2.67;;;12.70;99.90;;;;;;10359529;28;20228;-78
2022/05/29 07:14:17;;;;;;;5.50;2.83;;;12.80;99.90;;;;;;10336291;28;20223;-79
2022/05/29 07:19:40;;;;;;;7.38;2.53;;;13.00;99.90;;;;;;10369062;28;20498;-78
2022/05/29 07:25:05;;;;;;;10.30;2.72;;;13.40;99.90;;;;;;10359197;28;20275;-78
2022/05/29 07:30:26;;;;;;;6.93;2.78;;;13.70;99.90;;;;;;10358337;28;20197;-78
2022/05/29 07:35:47;;;;;;;4.85;2.30;;;14.00;99.90;;;;;;10358904;28;20236;-78
2022/05/29 07:46:48;;;;;;;8.45;3.15;;;14.10;99.90;;;;;;10317205;28;20266;-78
2022/05/29 07:52:09;;;;;;;5.88;2.70;;;13.80;99.90;;;;;;10316938;28;20196;-78
2022/05/29 07:57:30;;;;;;;5.88;2.85;;;13.70;78.70;;;;;;10317865;28;20203;-79
2022/05/29 08:02:51;;;;;;;6.32;3.08;;;13.80;95.40;;;;;;10316778;28;20249;-78
2022/05/29 08:08:13;;;;;;;7.53;2.95;;;13.70;99.90;;;;;;10317332;28;20211;-79
2022/05/29 08:13:35;;;;;;;8.18;2.70;;;13.40;99.90;;;;;;10342594;28;20221;-78
2022/05/29 08:18:56;;;;;;;5.03;2.70;;;13.20;99.90;;;;;;10357207;28;20483;-79
2022/05/29 08:36:11;;;;;;;4.15;2.35;;;13.80;99.90;;;;;;10355249;28;20281;-78
2022/05/29 08:41:46;;;;;;;6.35;2.80;;;14.20;99.90;;;;;;10356343;28;20238;-78
2022/05/29 08:47:08;;;;;;;6.10;2.40;;;14.40;99.90;;;;;;10355167;28;20270;-78
2022/05/29 08:52:56;;;;;;;6.13;2.58;;;14.40;99.90;;;;;;10355755;28;20221;-79
2022/05/29 08:58:24;;;;;;;6.30;2.70;;;14.50;99.90;;;;;;10355041;28;20506;-80
2022/05/29 09:03:51;;;;;;;8.98;4.10;;;14.60;81.50;;;;;;10340495;28;20287;-79
2022/05/29 09:09:16;;;;;;;10.63;3.00;;;14.40;65.30;;;;;;10355339;28;20391;-80
2022/05/29 09:14:52;;;;;;;9.05;4.07;;;14.50;99.90;;;;;;10340917;28;20205;-78
2022/05/29 09:20:26;;;;;;;4.22;2.58;;;14.90;92.40;;;;;;10355270;28;20507;-80
2022/05/29 09:25:49;;;;;;;11.70;3.72;;;15.40;33.50;;;;;;10354111;28;20239;-80
2022/05/29 09:31:21;;;;;;;8.45;3.60;;;15.40;1.00;;;;;;10354486;28;20545;-80
2022/05/29 09:37:00;;;;;;;9.48;3.20;;;15.40;1.00;;;;;;10340169;28;20250;-80
2022/05/29 09:42:25;;;;;;;12.48;5.35;;;15.10;10.80;;;;;;10340040;28;20234;-80
2022/05/29 09:53:41;;;;;;;15.63;4.32;;;15.20;1.00;;;;;;10339633;28;20459;-79
2022/05/29 09:59:18;;;;;;;8.52;2.80;;;15.40;92.80;;;;;;10354050;28;20254;-80
2022/05/29 10:04:41;;;;;;;5.78;3.10;;;14.90;1.00;;;;;;10361231;28;20283;-81
2022/05/29 10:10:27;;;;;;;7.00;2.70;;;14.50;50.70;;;;;;10361917;28;20202;-78
2022/05/29 10:15:48;;;;;;;6.90;3.13;;;14.50;51.40;;;;;;10361031;28;20207;-78
2022/05/29 10:21:21;;;;;;;11.15;6.75;;;14.90;41.20;;;;;;10347361;28;20191;-80
2022/05/29 10:26:49;;;;;;;7.35;2.85;;;15.80;17.20;;;;;;10347243;28;20193;-80
2022/05/29 10:32:22;;;;;;;6.85;2.83;;;16.20;2.30;;;;;;10361193;28;20394;-80
2022/05/29 10:37:45;;;;;;;5.05;2.70;;;16.10;1.00;;;;;;10346328;28;20313;-80
2022/05/29 10:43:06;;;;;;;5.03;2.65;;;15.90;99.90;;;;;;10359605;28;20400;-80
2022/05/29 10:48:50;;;;;;;4.60;2.88;;;15.80;1.00;;;;;;10359957;28;20197;-80
2022/05/29 10:54:35;;;;;;;5.60;2.80;;;16.10;1.00;;;;;;10359387;28;20250;-79
2022/05/29 11:00:14;;;;;;;5.07;2.80;;;16.70;90.50;;;;;;10359221;28;20518;-81
2022/05/29 11:05:54;;;;;;;7.63;2.75;;;17.40;99.90;;;;;;10360022;28;20259;-79
2022/05/29 11:11:34;;;;;;;9.45;3.45;;;17.40;99.90;;;;;;10371882;28;20371;-79
2022/05/29 11:16:59;;;;;;;4.80;2.85;;;18.00;99.90;;;;;;10344515;28;20206;-80
2022/05/29 11:22:23;;;;;;;5.38;2.92;;;18.00;99.90;;;;;;10345032;28;20221;-80
2022/05/29 11:28:10;;;;;;;4.78;3.00;;;17.70;99.90;;;;;;10330957;28;20215;-80
2022/05/29 11:33:56;;;;;;;7.85;3.28;;;17.30;99.90;;;;;;10359134;28;20197;-79
2022/05/29 11:39:22;;;;;;;6.90;3.75;;;16.90;99.90;;;;;;10357844;28;20247;-79
2022/05/29 11:45:02;;;;;;;8.05;3.35;;;17.00;1.00;;;;;;10357377;28;20447;-79
2022/05/29 11:56:33;;;;;;;2.63;2.00;;;17.20;1.00;;;;;;10357013;28;20208;-79
2022/05/29 12:02:01;;;;;;;2.63;1.27;;;16.70;1.00;;;;;;10357500;28;20514;-78
2022/05/29 12:08:04;;;;;;;2.80;1.33;;;16.50;1.00;;;;;;10342561;28;20298;-78
2022/05/29 12:13:30;;;;;;;5.25;2.33;;;16.50;1.00;;;;;;10357088;28;20438;-80
2022/05/29 12:18:53;;;;;;;2.92;1.83;;;16.30;1.00;;;;;;10342408;28;20203;-80
2022/05/29 12:24:23;;;;;;;2.70;1.77;;;16.10;1.00;;;;;;10355656;28;20550;-80
2022/05/29 12:30:20;;;;;;;3.95;2.38;;;16.00;1.00;;;;;;10355751;28;20204;-80
2022/05/29 12:36:19;;;;;;;5.13;2.53;;;16.30;1.00;;;;;;10341662;28;20627;-78
2022/05/29 12:41:49;;;;;;;5.90;2.25;;;16.50;1.00;;;;;;10352626;28;20264;-80
2022/05/29 12:47:26;;;;;;;4.80;2.35;;;17.00;1.00;;;;;;10352679;28;20462;-80
2022/05/29 12:53:14;;;;;;;4.28;2.53;;;17.20;1.00;;;;;;10336103;28;20211;-80
2022/05/29 12:59:12;;;;;;;5.88;2.47;;;17.30;1.00;;;;;;10335914;28;20220;-79
2022/05/29 13:04:54;;;;;;;6.07;2.58;;;17.30;1.00;;;;;;10351980;28;20236;-78
2022/05/29 13:10:27;;;;;;;1.63;1.23;;;17.20;1.00;;;;;;10337890;28;20212;-81
2022/05/29 13:15:49;;;;;;;2.85;1.63;;;17.00;98.50;;;;;;10322531;28;20232;-78
2022/05/29 13:21:18;;;;;;;2.08;1.70;;;16.60;99.30;;;;;;10341220;28;20258;-78
2022/05/29 13:26:41;;;;;;;2.13;1.33;;;16.70;99.50;;;;;;10340654;28;20233;-78
2022/05/29 13:32:14;;;;;;;1.80;1.40;;;17.40;97.40;;;;;;10354650;28;20498;-78
2022/05/29 13:37:40;;;;;;;2.65;1.77;;;17.50;96.10;;;;;;10359612;28;20240;-79
2022/05/29 13:43:18;;;;;;;2.53;1.48;;;17.70;97.60;;;;;;10348346;28;20296;-79
2022/05/29 13:49:20;;;;;;;3.92;1.70;;;17.30;98.50;;;;;;10361866;28;20506;-78
2022/05/29 13:54:42;;;;;;;2.28;1.40;;;16.70;99.60;;;;;;10347824;28;20279;-79
2022/05/29 14:05:46;;;;;;;2.10;1.30;;;16.50;99.90;;;;;;10362562;28;20224;-79
2022/05/29 14:11:13;;;;;;;2.38;1.80;;;16.30;99.90;;;;;;10361221;28;20278;-79
2022/05/29 14:16:42;;;;;;;6.45;2.47;;;16.00;1.00;;;;;;10361938;28;20201;-78
2022/05/29 14:28:25;;;;;;;3.42;2.40;;;15.70;1.00;;;;;;10361941;28;20243;-79
2022/05/29 14:34:08;;;;;;;2.88;2.08;;;15.50;1.00;;;;;;10361882;28;20197;-78
2022/05/29 14:39:39;;;;;;;3.35;2.38;;;15.30;1.00;;;;;;10361105;28;20236;-79
2022/05/29 14:45:20;;;;;;;7.50;4.65;;;15.20;11.80;;;;;;10359938;28;20270;-78
2022/05/29 14:51:05;;;;;;;12.77;5.95;;;14.90;51.10;;;;;;10360460;28;20195;-79
2022/05/29 14:56:38;;;;;;;10.40;5.93;;;14.80;68.90;;;;;;10360501;28;20235;-79
2022/05/29 15:02:05;;;;;;;6.80;4.30;;;14.60;99.90;;;;;;10360216;28;20206;-79
2022/05/29 15:13:11;;;;;;;4.53;3.65;;;14.20;99.90;;;;;;10358150;28;20209;-80
2022/05/29 15:18:34;;;;;;;8.07;3.90;;;13.90;99.90;;;;;;10344827;28;20205;-78
2022/05/29 15:24:14;;;;;;;7.07;5.07;;;13.70;99.90;;;;;;10344288;28;20246;-81
2022/05/29 15:29:51;;;;;;;8.38;5.40;;;13.60;99.90;;;;;;10358317;28;20194;-81
2022/05/29 15:35:13;;;;;;;8.95;5.80;;;13.50;99.90;;;;;;10357806;28;20191;-79
2022/05/29 15:40:52;;;;;;;9.95;6.30;;;13.40;99.90;;;;;;10357924;28;20205;-80
2022/05/29 15:46:44;;;;;;;8.30;5.22;;;13.30;99.90;;;;;;10343599;28;20508;-81
2022/05/29 15:52:26;;;;;;;6.47;4.05;;;13.20;99.90;;;;;;10357613;28;20360;-79
2022/05/29 15:57:51;;;;;;;3.75;2.80;;;13.20;99.90;;;;;;10356190;28;20380;-79
2022/05/29 16:03:15;;;;;;;3.85;2.72;;;13.10;99.90;;;;;;10357015;28;20225;-78
2022/05/29 16:08:37;;;;;;;3.67;2.33;;;13.10;99.90;;;;;;10343089;28;20258;-78
2022/05/29 16:13:59;;;;;;;6.70;4.00;;;13.00;99.90;;;;;;10356229;28;20205;-78
2022/05/29 16:19:32;;;;;;;9.32;6.60;;;13.00;99.90;;;;;;10356155;28;20227;-78
2022/05/29 16:25:36;;;;;;;12.05;6.75;;;13.00;99.90;;;;;;10342197;28;20236;-78
2022/05/29 16:31:20;;;;;;;12.18;6.93;;;13.00;99.90;;;;;;10339883;28;20398;-79
2022/05/29 16:48:48;;;;;;;9.85;6.20;;;13.00;99.90;;;;;;10352898;28;20213;-79
2022/05/29 16:54:43;;;;;;;9.32;6.97;;;13.10;99.90;;;;;;10353040;28;20211;-79
2022/05/29 17:00:12;;;;;;;8.13;5.97;;;13.20;99.90;;;;;;10352530;28;20556;-79
2022/05/29 17:05:44;;;;;;;7.60;4.75;;;13.10;99.90;;;;;;10330314;28;20247;-78
2022/05/29 17:11:15;;;;;;;8.05;5.38;;;13.10;99.90;;;;;;10337783;28;20382;-79
2022/05/29 17:16:36;;;;;;;10.07;5.80;;;13.00;99.90;;;;;;10340506;28;20217;-79
2022/05/29 17:22:05;;;;;;;7.97;6.00;;;12.90;99.90;;;;;;10340535;28;20210;-79
2022/05/29 17:27:35;;;;;;;11.98;7.80;;;12.90;99.90;;;;;;10355302;28;20226;-81
2022/05/29 17:33:06;;;;;;;12.15;7.70;;;12.80;99.90;;;;;;10340576;28;20201;-79
2022/05/29 17:38:35;;;;;;;8.43;6.55;;;12.80;99.90;;;;;;10354088;28;20259;-80
2022/05/29 17:43:57;;;;;;;6.88;4.93;;;12.80;99.90;;;;;;10354975;28;20251;-80
2022/05/29 17:49:42;;;;;;;5.90;4.03;;;12.70;99.90;;;;;;10340331;28;20217;-79
2022/05/29 17:55:09;;;;;;;5.63;4.57;;;12.60;99.90;;;;;;10340059;28;20209;-78
2022/05/29 18:00:33;;;;;;;6.63;4.90;;;12.60;99.90;;;;;;10339554;28;20205;-80
2022/05/29 18:05:54;;;;;;;7.85;5.45;;;12.60;99.90;;;;;;10353482;28;20317;-80
2022/05/29 18:11:19;;;;;;;15.65;9.75;;;12.60;99.90;;;;;;10353087;28;20203;-80
2022/05/29 18:16:43;;;;;;;23.70;14.65;;;12.60;99.90;;;;;;10339122;28;20201;-79
2022/05/29 18:22:05;;;;;;;21.83;14.40;;;12.50;99.90;;;;;;10354975;28;20228;-81
2022/05/29 18:27:26;;;;;;;14.60;9.95;;;12.50;99.90;;;;;;10360526;28;20232;-80
2022/05/29 18:32:48;;;;;;;12.80;9.10;;;12.40;99.90;;;;;;10361083;28;20468;-81
2022/05/29 18:38:11;;;;;;;18.60;8.85;;;12.40;99.90;;;;;;10346551;28;20334;-81
2022/05/29 18:43:32;;;;;;;10.07;8.32;;;12.30;99.90;;;;;;10359808;28;20519;-81
2022/05/29 18:48:53;;;;;;;12.18;8.27;;;12.30;99.90;;;;;;10360474;28;20255;-81
2022/05/29 18:54:17;;;;;;;15.97;10.37;;;12.20;99.90;;;;;;10345997;28;20236;-80
2022/05/29 18:59:38;;;;;;;17.60;9.95;;;12.20;99.90;;;;;;10359627;28;20260;-79
2022/05/29 19:05:00;;;;;;;25.77;14.18;;;12.10;99.90;;;;;;10359243;28;20514;-81
2022/05/29 19:10:21;;;;;;;24.92;13.88;;;12.00;99.90;;;;;;10372421;28;20236;-81
2022/05/29 19:15:43;;;;;;;24.07;14.53;;;11.90;99.90;;;;;;10359016;28;20230;-81
2022/05/29 19:21:05;;;;;;;29.83;16.57;;;11.90;99.90;;;;;;10359775;28;20359;-81
2022/05/29 19:26:29;;;;;;;32.38;20.75;;;11.90;99.90;;;;;;10358724;28;20227;-81
2022/05/29 19:31:52;;;;;;;36.17;23.92;;;11.90;99.90;;;;;;10358861;28;20220;-81
2022/05/29 19:37:13;;;;;;;37.88;24.58;;;11.80;99.90;;;;;;10357305;28;20469;-81
2022/05/29 19:42:36;;;;;;;32.93;22.47;;;11.80;99.90;;;;;;10343675;28;20209;-81
2022/05/29 19:47:57;;;;;;;33.93;21.70;;;11.80;99.90;;;;;;10343846;28;20296;-81
2022/05/29 19:53:18;;;;;;;25.97;18.50;;;11.80;99.90;;;;;;10358585;28;20213;-81
2022/05/29 19:58:41;;;;;;;27.03;17.20;;;11.80;99.90;;;;;;10329874;28;20213;-81
2022/05/29 20:04:03;;;;;;;22.45;14.73;;;11.80;99.90;;;;;;10357898;28;20271;-81
2022/05/29 20:09:28;;;;;;;24.83;15.53;;;11.80;99.90;;;;;;10342718;28;20197;-82
2022/05/29 20:14:50;;;;;;;23.80;15.03;;;11.70;99.90;;;;;;10356460;28;20201;-80
2022/05/29 20:20:12;;;;;;;21.00;13.27;;;11.70;99.90;;;;;;10356354;28;20273;-81
2022/05/29 20:25:33;;;;;;;15.20;10.67;;;11.70;99.90;;;;;;10342095;28;20247;-80
2022/05/29 20:30:56;;;;;;;15.67;10.20;;;11.70;99.90;;;;;;10357035;28;20196;-79
2022/05/29 20:36:17;;;;;;;16.67;10.47;;;11.60;99.90;;;;;;10341989;28;20312;-79
2022/05/29 20:41:42;;;;;;;14.10;10.43;;;11.60;99.90;;;;;;10355582;28;20193;-79
2022/05/29 20:52:44;;;;;;;12.10;8.17;;;11.70;99.90;;;;;;10354897;28;20200;-79
2022/05/29 20:58:05;;;;;;;14.67;8.70;;;11.60;99.90;;;;;;10355742;28;20197;-80
2022/05/29 21:03:26;;;;;;;12.93;8.20;;;11.60;99.90;;;;;;10341086;28;20235;-80
2022/05/29 21:08:47;;;;;;;11.60;8.10;;;11.60;99.90;;;;;;10340975;28;20383;-79
2022/05/29 21:14:11;;;;;;;12.20;8.40;;;11.60;99.90;;;;;;10317451;28;20225;-80
2022/05/29 21:19:32;;;;;;;13.30;7.87;;;11.60;99.90;;;;;;10315037;28;20497;-81
2022/05/29 21:24:53;;;;;;;10.67;8.43;;;11.50;99.90;;;;;;10313872;28;20228;-81
2022/05/29 21:30:14;;;;;;;19.47;13.43;;;11.60;99.90;;;;;;10300749;28;20227;-81
2022/05/29 21:35:37;;;;;;;20.53;14.03;;;11.60;99.90;;;;;;10314361;28;20241;-81
2022/05/29 21:41:00;;;;;;;31.37;20.90;;;11.70;99.90;;;;;;10313720;28;20515;-81
2022/05/29 21:46:22;;;;;;;39.33;23.30;;;11.60;99.90;;;;;;10314848;28;20229;-78
2022/05/29 21:51:43;;;;;;;32.57;18.07;;;11.60;99.90;;;;;;10314919;28;20221;-80
2022/05/29 21:57:05;;;;;;;24.50;15.27;;;11.50;99.90;;;;;;10315657;28;20485;-79
2022/05/29 22:02:26;;;;;;;19.23;12.20;;;11.40;99.90;;;;;;10322334;28;20265;-81
2022/05/29 22:07:47;;;;;;;16.60;10.27;;;11.40;99.90;;;;;;10321123;28;20224;-79
2022/05/29 22:13:09;;;;;;;13.50;9.33;;;11.40;99.90;;;;;;10360963;28;20271;-79
2022/05/29 22:18:31;;;;;;;12.20;8.57;;;11.30;99.90;;;;;;10347485;28;20205;-77
2022/05/29 22:23:54;;;;;;;11.80;8.30;;;11.40;99.90;;;;;;10362085;28;20221;-80
2022/05/29 22:29:15;;;;;;;12.00;9.17;;;11.40;99.90;;;;;;10347429;28;20192;-81
2022/05/29 22:34:50;;;;;;;10.30;8.07;;;11.30;99.90;;;;;;10346858;28;20208;-81
2022/05/29 22:40:14;;;;;;;9.50;7.17;;;11.20;99.90;;;;;;10360309;28;20386;-78
2022/05/29 22:45:37;;;;;;;9.80;6.70;;;11.20;99.90;;;;;;10360984;28;20235;-78
2022/05/29 22:51:04;;;;;;;7.10;6.00;;;11.30;99.90;;;;;;10359782;28;20200;-78
2022/05/29 22:56:25;;;;;;;7.10;6.40;;;11.20;99.90;;;;;;10345889;28;20216;-79
2022/05/29 23:01:52;;;;;;;7.20;5.50;;;11.20;99.90;;;;;;10360631;28;20188;-78
2022/05/29 23:07:16;;;;;;;6.63;5.47;;;11.20;99.90;;;;;;10358945;28;20236;-79
2022/05/29 23:12:38;;;;;;;9.80;6.37;;;11.20;99.90;;;;;;10358692;28;20211;-79
2022/05/29 23:17:59;;;;;;;9.53;6.60;;;11.20;99.90;;;;;;10358815;28;20206;-78
2022/05/29 23:23:22;;;;;;;7.87;7.07;;;11.20;99.90;;;;;;10344572;28;20478;-79
2022/05/29 23:28:43;;;;;;;9.07;7.00;;;11.20;99.90;;;;;;10359520;28;20203;-79
2022/05/29 23:34:04;;;;;;;11.77;7.67;;;11.20;99.90;;;;;;10359038;28;20215;-78
2022/05/29 23:39:26;;;;;;;9.53;7.43;;;11.20;99.90;;;;;;10357854;28;20248;-81
2022/05/29 23:44:47;;;;;;;9.50;7.40;;;11.20;99.90;;;;;;10330385;28;20278;-81
2022/05/29 23:50:08;;;;;;;11.27;8.53;;;11.10;99.90;;;;;;10357549;28;20202;-79
2022/05/29 23:55:29;;;;;;;10.73;8.80;;;11.20;99.90;;;;;;10357645;28;20213;-80
